sensor_id;sensor_type;location;lat;lon;timestamp;P1;durP1;ratioP1;P2;durP2;ratioP2
27257;SDS011;62045;49.986;8.672;2022-11-20T00:04:04;3.28;;;2.22;;
27257;SDS011;62045;49.986;8.672;2022-11-20T00:09:06;4.22;;;2.65;;
27257;SDS011;62045;49.986;8.672;2022-11-20T00:14:06;3.35;;;2.22;;
27257;SDS011;62045;49.986;8.672;2022-11-20T00:19:09;3.58;;;2.78;;
27257;SDS011;62045;49.986;8.672;2022-11-20T00:24:11;2.90;;;2.20;;
27257;SDS011;62045;49.986;8.672;2022-11-20T00:29:12;3.08;;;2.10;;
27257;SDS011;62045;49.986;8.672;2022-11-20T00:34:13;3.30;;;2.08;;
27257;SDS011;62045;49.986;8.672;2022-11-20T00:39:15;3.80;;;2.30;;
27257;SDS011;62045;49.986;8.672;2022-11-20T00:44:15;3.22;;;2.28;;
27257;SDS011;62045;49.986;8.672;2022-11-20T00:49:16;3.65;;;2.60;;
27257;SDS011;62045;49.986;8.672;2022-11-20T00:54:18;3.42;;;2.55;;
27257;SDS011;62045;49.986;8.672;2022-11-20T00:59:19;3.30;;;2.45;;
27257;SDS011;62045;49.986;8.672;2022-11-20T01:04:19;3.38;;;2.22;;
27257;SDS011;62045;49.986;8.672;2022-11-20T01:09:21;4.68;;;2.58;;
27257;SDS011;62045;49.986;8.672;2022-11-20T01:14:22;2.97;;;2.20;;
27257;SDS011;62045;49.986;8.672;2022-11-20T01:19:23;3.50;;;2.30;;
27257;SDS011;62045;49.986;8.672;2022-11-20T01:24:25;3.40;;;2.22;;
27257;SDS011;62045;49.986;8.672;2022-11-20T01:29:26;3.45;;;2.38;;
27257;SDS011;62045;49.986;8.672;2022-11-20T01:34:26;3.38;;;2.40;;
27257;SDS011;62045;49.986;8.672;2022-11-20T01:39:28;3.75;;;2.47;;
27257;SDS011;62045;49.986;8.672;2022-11-20T01:44:43;3.72;;;2.35;;
27257;SDS011;62045;49.986;8.672;2022-11-20T01:49:50;4.25;;;2.40;;
27257;SDS011;62045;49.986;8.672;2022-11-20T01:54:58;3.45;;;2.60;;
27257;SDS011;62045;49.986;8.672;2022-11-20T02:00:04;3.22;;;2.28;;
27257;SDS011;62045;49.986;8.672;2022-11-20T02:05:14;3.47;;;2.42;;
27257;SDS011;62045;49.986;8.672;2022-11-20T02:10:20;3.30;;;2.35;;
27257;SDS011;62045;49.986;8.672;2022-11-20T02:15:21;3.92;;;2.47;;
27257;SDS011;62045;49.986;8.672;2022-11-20T02:20:22;3.00;;;2.40;;
27257;SDS011;62045;49.986;8.672;2022-11-20T02:25:24;3.13;;;2.03;;
27257;SDS011;62045;49.986;8.672;2022-11-20T02:30:26;3.30;;;2.40;;
27257;SDS011;62045;49.986;8.672;2022-11-20T02:35:39;3.85;;;2.50;;
27257;SDS011;62045;49.986;8.672;2022-11-20T02:40:43;3.95;;;2.65;;
27257;SDS011;62045;49.986;8.672;2022-11-20T02:45:44;3.38;;;2.05;;
27257;SDS011;62045;49.986;8.672;2022-11-20T02:50:44;3.28;;;2.22;;
27257;SDS011;62045;49.986;8.672;2022-11-20T02:55:46;3.22;;;2.20;;
27257;SDS011;62045;49.986;8.672;2022-11-20T03:00:47;3.20;;;2.05;;
27257;SDS011;62045;49.986;8.672;2022-11-20T03:05:48;4.25;;;2.60;;
27257;SDS011;62045;49.986;8.672;2022-11-20T03:10:50;3.33;;;2.38;;
27257;SDS011;62045;49.986;8.672;2022-11-20T03:15:50;3.10;;;2.17;;
27257;SDS011;62045;49.986;8.672;2022-11-20T03:20:56;4.40;;;2.78;;
27257;SDS011;62045;49.986;8.672;2022-11-20T03:26:08;3.30;;;2.15;;
27257;SDS011;62045;49.986;8.672;2022-11-20T03:31:14;3.28;;;2.30;;
27257;SDS011;62045;49.986;8.672;2022-11-20T03:36:16;3.22;;;2.38;;
27257;SDS011;62045;49.986;8.672;2022-11-20T03:41:20;3.17;;;2.03;;
27257;SDS011;62045;49.986;8.672;2022-11-20T03:46:23;3.53;;;2.20;;
27257;SDS011;62045;49.986;8.672;2022-11-20T03:51:24;4.78;;;2.13;;
27257;SDS011;62045;49.986;8.672;2022-11-20T03:56:28;3.00;;;1.95;;
27257;SDS011;62045;49.986;8.672;2022-11-20T04:06:35;3.47;;;2.15;;
27257;SDS011;62045;49.986;8.672;2022-11-20T04:11:39;3.22;;;2.30;;
27257;SDS011;62045;49.986;8.672;2022-11-20T04:16:40;3.55;;;2.28;;
27257;SDS011;62045;49.986;8.672;2022-11-20T04:21:41;3.88;;;2.60;;
27257;SDS011;62045;49.986;8.672;2022-11-20T04:26:44;3.13;;;2.10;;
27257;SDS011;62045;49.986;8.672;2022-11-20T04:31:44;3.55;;;2.35;;
27257;SDS011;62045;49.986;8.672;2022-11-20T04:36:45;2.92;;;1.95;;
27257;SDS011;62045;49.986;8.672;2022-11-20T04:41:47;3.13;;;2.17;;
27257;SDS011;62045;49.986;8.672;2022-11-20T04:46:48;3.15;;;2.10;;
27257;SDS011;62045;49.986;8.672;2022-11-20T04:51:48;2.92;;;2.22;;
27257;SDS011;62045;49.986;8.672;2022-11-20T04:56:54;3.13;;;2.42;;
27257;SDS011;62045;49.986;8.672;2022-11-20T05:01:54;3.10;;;1.95;;
27257;SDS011;62045;49.986;8.672;2022-11-20T05:06:55;3.08;;;2.00;;
27257;SDS011;62045;49.986;8.672;2022-11-20T05:11:57;3.28;;;2.38;;
27257;SDS011;62045;49.986;8.672;2022-11-20T05:16:58;2.97;;;2.20;;
27257;SDS011;62045;49.986;8.672;2022-11-20T05:21:58;3.08;;;2.28;;
27257;SDS011;62045;49.986;8.672;2022-11-20T05:27:00;3.38;;;2.30;;
27257;SDS011;62045;49.986;8.672;2022-11-20T05:32:01;2.83;;;1.80;;
27257;SDS011;62045;49.986;8.672;2022-11-20T05:37:02;3.05;;;2.00;;
27257;SDS011;62045;49.986;8.672;2022-11-20T05:42:04;3.38;;;2.25;;
27257;SDS011;62045;49.986;8.672;2022-11-20T05:47:05;3.22;;;2.10;;
27257;SDS011;62045;49.986;8.672;2022-11-20T05:52:06;3.22;;;2.03;;
27257;SDS011;62045;49.986;8.672;2022-11-20T05:57:08;2.80;;;1.80;;
27257;SDS011;62045;49.986;8.672;2022-11-20T06:02:08;3.00;;;2.03;;
27257;SDS011;62045;49.986;8.672;2022-11-20T06:07:09;3.22;;;2.10;;
27257;SDS011;62045;49.986;8.672;2022-11-20T06:12:11;2.67;;;2.00;;
27257;SDS011;62045;49.986;8.672;2022-11-20T06:17:12;2.65;;;1.70;;
27257;SDS011;62045;49.986;8.672;2022-11-20T06:22:13;2.85;;;2.00;;
27257;SDS011;62045;49.986;8.672;2022-11-20T06:27:15;4.30;;;2.05;;
27257;SDS011;62045;49.986;8.672;2022-11-20T06:32:16;3.50;;;2.22;;
27257;SDS011;62045;49.986;8.672;2022-11-20T06:37:17;3.08;;;2.00;;
27257;SDS011;62045;49.986;8.672;2022-11-20T06:42:19;3.15;;;2.05;;
27257;SDS011;62045;49.986;8.672;2022-11-20T06:47:19;2.38;;;1.73;;
27257;SDS011;62045;49.986;8.672;2022-11-20T06:52:20;3.00;;;2.10;;
27257;SDS011;62045;49.986;8.672;2022-11-20T06:57:22;2.60;;;1.73;;
27257;SDS011;62045;49.986;8.672;2022-11-20T07:02:23;2.75;;;1.67;;
27257;SDS011;62045;49.986;8.672;2022-11-20T07:07:23;2.83;;;2.00;;
27257;SDS011;62045;49.986;8.672;2022-11-20T07:12:25;3.03;;;1.98;;
27257;SDS011;62045;49.986;8.672;2022-11-20T07:17:26;3.13;;;1.80;;
27257;SDS011;62045;49.986;8.672;2022-11-20T07:22:27;3.20;;;1.80;;
27257;SDS011;62045;49.986;8.672;2022-11-20T07:27:29;2.30;;;1.67;;
27257;SDS011;62045;49.986;8.672;2022-11-20T07:32:30;2.90;;;1.90;;
27257;SDS011;62045;49.986;8.672;2022-11-20T07:37:30;3.47;;;2.10;;
27257;SDS011;62045;49.986;8.672;2022-11-20T07:42:35;2.75;;;1.70;;
27257;SDS011;62045;49.986;8.672;2022-11-20T07:47:36;2.45;;;1.73;;
27257;SDS011;62045;49.986;8.672;2022-11-20T07:52:36;3.00;;;1.88;;
27257;SDS011;62045;49.986;8.672;2022-11-20T07:57:38;2.88;;;1.90;;
27257;SDS011;62045;49.986;8.672;2022-11-20T08:02:39;2.80;;;1.90;;
27257;SDS011;62045;49.986;8.672;2022-11-20T08:07:41;3.53;;;1.90;;
27257;SDS011;62045;49.986;8.672;2022-11-20T08:12:45;3.17;;;1.90;;
27257;SDS011;62045;49.986;8.672;2022-11-20T08:17:46;3.10;;;2.00;;
27257;SDS011;62045;49.986;8.672;2022-11-20T08:22:47;3.13;;;1.83;;
27257;SDS011;62045;49.986;8.672;2022-11-20T08:27:49;3.42;;;2.10;;
27257;SDS011;62045;49.986;8.672;2022-11-20T08:32:50;3.00;;;2.03;;
27257;SDS011;62045;49.986;8.672;2022-11-20T08:37:51;4.22;;;2.42;;
27257;SDS011;62045;49.986;8.672;2022-11-20T08:42:53;3.53;;;2.22;;
27257;SDS011;62045;49.986;8.672;2022-11-20T08:47:53;9.27;;;2.97;;
27257;SDS011;62045;49.986;8.672;2022-11-20T08:53:02;10.13;;;7.05;;
27257;SDS011;62045;49.986;8.672;2022-11-20T08:58:04;16.87;;;11.33;;
27257;SDS011;62045;49.986;8.672;2022-11-20T09:03:05;13.88;;;11.18;;
27257;SDS011;62045;49.986;8.672;2022-11-20T09:08:06;46.13;;;39.95;;
27257;SDS011;62045;49.986;8.672;2022-11-20T09:13:08;21.02;;;18.33;;
27257;SDS011;62045;49.986;8.672;2022-11-20T09:18:08;14.15;;;11.50;;
27257;SDS011;62045;49.986;8.672;2022-11-20T09:23:09;15.07;;;10.60;;
27257;SDS011;62045;49.986;8.672;2022-11-20T09:28:11;13.20;;;9.95;;
27257;SDS011;62045;49.986;8.672;2022-11-20T09:33:12;11.90;;;9.18;;
27257;SDS011;62045;49.986;8.672;2022-11-20T09:38:12;11.73;;;9.05;;
27257;SDS011;62045;49.986;8.672;2022-11-20T09:43:15;10.07;;;8.70;;
27257;SDS011;62045;49.986;8.672;2022-11-20T09:48:21;10.10;;;8.15;;
27257;SDS011;62045;49.986;8.672;2022-11-20T09:53:51;8.75;;;6.68;;
27257;SDS011;62045;49.986;8.672;2022-11-20T09:59:02;8.55;;;7.18;;
27257;SDS011;62045;49.986;8.672;2022-11-20T10:04:06;8.32;;;6.70;;
27257;SDS011;62045;49.986;8.672;2022-11-20T10:09:16;8.48;;;6.43;;
27257;SDS011;62045;49.986;8.672;2022-11-20T10:14:25;9.05;;;6.88;;
27257;SDS011;62045;49.986;8.672;2022-11-20T10:19:35;6.97;;;5.72;;
27257;SDS011;62045;49.986;8.672;2022-11-20T10:24:44;7.40;;;5.85;;
27257;SDS011;62045;49.986;8.672;2022-11-20T10:29:59;8.30;;;6.13;;
27257;SDS011;62045;49.986;8.672;2022-11-20T10:35:03;6.75;;;5.20;;
27257;SDS011;62045;49.986;8.672;2022-11-20T10:40:14;6.55;;;5.18;;
27257;SDS011;62045;49.986;8.672;2022-11-20T10:50:32;7.20;;;4.90;;
27257;SDS011;62045;49.986;8.672;2022-11-20T10:55:39;7.15;;;5.20;;
27257;SDS011;62045;49.986;8.672;2022-11-20T11:00:46;5.80;;;4.57;;
27257;SDS011;62045;49.986;8.672;2022-11-20T11:05:48;6.13;;;4.55;;
27257;SDS011;62045;49.986;8.672;2022-11-20T11:10:55;5.80;;;4.47;;
27257;SDS011;62045;49.986;8.672;2022-11-20T11:16:00;6.55;;;4.75;;
27257;SDS011;62045;49.986;8.672;2022-11-20T11:21:03;6.00;;;4.22;;
27257;SDS011;62045;49.986;8.672;2022-11-20T11:26:06;6.28;;;4.65;;
27257;SDS011;62045;49.986;8.672;2022-11-20T11:31:23;5.93;;;4.60;;
27257;SDS011;62045;49.986;8.672;2022-11-20T11:36:24;5.40;;;4.32;;
27257;SDS011;62045;49.986;8.672;2022-11-20T11:41:31;5.10;;;4.18;;
27257;SDS011;62045;49.986;8.672;2022-11-20T11:46:35;5.07;;;4.03;;
27257;SDS011;62045;49.986;8.672;2022-11-20T11:51:38;4.65;;;3.70;;
27257;SDS011;62045;49.986;8.672;2022-11-20T11:56:46;5.30;;;4.60;;
27257;SDS011;62045;49.986;8.672;2022-11-20T12:01:50;5.25;;;3.72;;
27257;SDS011;62045;49.986;8.672;2022-11-20T12:06:57;4.75;;;3.72;;
27257;SDS011;62045;49.986;8.672;2022-11-20T12:12:02;5.28;;;4.03;;
27257;SDS011;62045;49.986;8.672;2022-11-20T12:17:10;4.57;;;3.65;;
27257;SDS011;62045;49.986;8.672;2022-11-20T12:22:14;4.75;;;3.70;;
27257;SDS011;62045;49.986;8.672;2022-11-20T12:38:34;4.20;;;3.17;;
27257;SDS011;62045;49.986;8.672;2022-11-20T12:43:51;6.50;;;3.90;;
27257;SDS011;62045;49.986;8.672;2022-11-20T12:49:05;295.98;;;103.95;;
27257;SDS011;62045;49.986;8.672;2022-11-20T12:54:24;344.75;;;147.90;;
27257;SDS011;62045;49.986;8.672;2022-11-20T12:59:47;296.33;;;134.05;;
27257;SDS011;62045;49.986;8.672;2022-11-20T13:05:09;539.42;;;321.80;;
27257;SDS011;62045;49.986;8.672;2022-11-20T13:10:20;609.80;;;446.45;;
27257;SDS011;62045;49.986;8.672;2022-11-20T13:15:34;481.35;;;347.38;;
27257;SDS011;62045;49.986;8.672;2022-11-20T13:20:44;403.17;;;290.15;;
27257;SDS011;62045;49.986;8.672;2022-11-20T13:25:45;341.52;;;247.48;;
27257;SDS011;62045;49.986;8.672;2022-11-20T13:30:48;311.30;;;215.05;;
27257;SDS011;62045;49.986;8.672;2022-11-20T13:35:56;257.25;;;177.60;;
27257;SDS011;62045;49.986;8.672;2022-11-20T13:40:58;212.70;;;148.07;;
27257;SDS011;62045;49.986;8.672;2022-11-20T13:51:06;164.98;;;113.22;;
27257;SDS011;62045;49.986;8.672;2022-11-20T13:56:20;144.50;;;97.88;;
27257;SDS011;62045;49.986;8.672;2022-11-20T14:01:24;123.65;;;83.50;;
27257;SDS011;62045;49.986;8.672;2022-11-20T14:06:31;107.07;;;73.40;;
27257;SDS011;62045;49.986;8.672;2022-11-20T14:11:34;92.18;;;64.88;;
27257;SDS011;62045;49.986;8.672;2022-11-20T14:16:35;82.30;;;56.47;;
27257;SDS011;62045;49.986;8.672;2022-11-20T14:21:37;73.50;;;50.53;;
27257;SDS011;62045;49.986;8.672;2022-11-20T14:26:41;55.97;;;38.83;;
27257;SDS011;62045;49.986;8.672;2022-11-20T14:31:43;52.72;;;38.47;;
27257;SDS011;62045;49.986;8.672;2022-11-20T14:36:46;54.47;;;36.47;;
27257;SDS011;62045;49.986;8.672;2022-11-20T14:41:50;51.72;;;35.92;;
27257;SDS011;62045;49.986;8.672;2022-11-20T14:46:51;48.55;;;35.60;;
27257;SDS011;62045;49.986;8.672;2022-11-20T14:51:59;49.20;;;35.25;;
27257;SDS011;62045;49.986;8.672;2022-11-20T14:57:02;49.13;;;34.58;;
27257;SDS011;62045;49.986;8.672;2022-11-20T15:02:04;46.55;;;32.30;;
27257;SDS011;62045;49.986;8.672;2022-11-20T15:07:09;43.97;;;31.65;;
27257;SDS011;62045;49.986;8.672;2022-11-20T15:12:15;48.35;;;31.52;;
27257;SDS011;62045;49.986;8.672;2022-11-20T15:17:18;39.30;;;29.30;;
27257;SDS011;62045;49.986;8.672;2022-11-20T15:22:20;41.13;;;29.55;;
27257;SDS011;62045;49.986;8.672;2022-11-20T15:27:20;39.38;;;29.50;;
27257;SDS011;62045;49.986;8.672;2022-11-20T15:32:21;38.67;;;27.85;;
27257;SDS011;62045;49.986;8.672;2022-11-20T15:37:23;38.92;;;27.77;;
27257;SDS011;62045;49.986;8.672;2022-11-20T15:42:24;40.92;;;26.55;;
27257;SDS011;62045;49.986;8.672;2022-11-20T15:47:25;39.00;;;26.50;;
27257;SDS011;62045;49.986;8.672;2022-11-20T15:52:31;37.58;;;25.85;;
27257;SDS011;62045;49.986;8.672;2022-11-20T15:57:31;32.17;;;21.35;;
27257;SDS011;62045;49.986;8.672;2022-11-20T16:02:32;30.85;;;22.08;;
27257;SDS011;62045;49.986;8.672;2022-11-20T16:07:34;27.70;;;19.05;;
27257;SDS011;62045;49.986;8.672;2022-11-20T16:12:35;33.65;;;17.92;;
27257;SDS011;62045;49.986;8.672;2022-11-20T16:17:35;23.35;;;16.52;;
27257;SDS011;62045;49.986;8.672;2022-11-20T16:22:37;15.32;;;10.52;;
27257;SDS011;62045;49.986;8.672;2022-11-20T16:27:38;14.43;;;10.38;;
27257;SDS011;62045;49.986;8.672;2022-11-20T16:32:39;15.43;;;9.68;;
27257;SDS011;62045;49.986;8.672;2022-11-20T16:37:41;15.88;;;9.77;;
27257;SDS011;62045;49.986;8.672;2022-11-20T16:42:42;14.88;;;8.65;;
27257;SDS011;62045;49.986;8.672;2022-11-20T16:47:42;12.63;;;9.40;;
27257;SDS011;62045;49.986;8.672;2022-11-20T16:52:44;13.85;;;8.88;;
27257;SDS011;62045;49.986;8.672;2022-11-20T16:57:45;14.48;;;8.77;;
27257;SDS011;62045;49.986;8.672;2022-11-20T17:02:46;12.32;;;8.90;;
27257;SDS011;62045;49.986;8.672;2022-11-20T17:07:48;11.05;;;7.65;;
27257;SDS011;62045;49.986;8.672;2022-11-20T17:12:48;11.40;;;7.32;;
27257;SDS011;62045;49.986;8.672;2022-11-20T17:17:49;10.25;;;7.47;;
27257;SDS011;62045;49.986;8.672;2022-11-20T17:22:51;11.18;;;7.10;;
27257;SDS011;62045;49.986;8.672;2022-11-20T17:27:53;10.63;;;7.55;;
27257;SDS011;62045;49.986;8.672;2022-11-20T17:32:53;9.93;;;6.72;;
27257;SDS011;62045;49.986;8.672;2022-11-20T17:37:55;10.43;;;6.95;;
27257;SDS011;62045;49.986;8.672;2022-11-20T17:42:56;9.95;;;6.68;;
27257;SDS011;62045;49.986;8.672;2022-11-20T17:47:57;9.43;;;6.82;;
27257;SDS011;62045;49.986;8.672;2022-11-20T17:52:59;11.48;;;6.85;;
27257;SDS011;62045;49.986;8.672;2022-11-20T17:58:00;9.30;;;6.43;;
27257;SDS011;62045;49.986;8.672;2022-11-20T18:03:00;10.13;;;5.95;;
27257;SDS011;62045;49.986;8.672;2022-11-20T18:08:02;13.18;;;6.63;;
27257;SDS011;62045;49.986;8.672;2022-11-20T18:13:03;11.23;;;6.00;;
27257;SDS011;62045;49.986;8.672;2022-11-20T18:18:04;9.75;;;5.70;;
27257;SDS011;62045;49.986;8.672;2022-11-20T18:23:06;10.18;;;5.90;;
27257;SDS011;62045;49.986;8.672;2022-11-20T18:28:07;10.00;;;5.25;;
27257;SDS011;62045;49.986;8.672;2022-11-20T18:33:07;10.07;;;5.43;;
27257;SDS011;62045;49.986;8.672;2022-11-20T18:38:10;9.32;;;5.05;;
27257;SDS011;62045;49.986;8.672;2022-11-20T18:43:10;10.55;;;5.25;;
27257;SDS011;62045;49.986;8.672;2022-11-20T18:48:11;8.65;;;4.78;;
27257;SDS011;62045;49.986;8.672;2022-11-20T18:53:13;10.20;;;4.40;;
27257;SDS011;62045;49.986;8.672;2022-11-20T18:58:14;6.53;;;4.40;;
27257;SDS011;62045;49.986;8.672;2022-11-20T19:03:14;9.45;;;4.88;;
27257;SDS011;62045;49.986;8.672;2022-11-20T19:08:16;8.00;;;4.80;;
27257;SDS011;62045;49.986;8.672;2022-11-20T19:13:17;9.30;;;4.97;;
27257;SDS011;62045;49.986;8.672;2022-11-20T19:18:18;7.80;;;4.88;;
27257;SDS011;62045;49.986;8.672;2022-11-20T19:23:20;7.40;;;4.82;;
27257;SDS011;62045;49.986;8.672;2022-11-20T19:28:21;6.75;;;4.30;;
27257;SDS011;62045;49.986;8.672;2022-11-20T19:33:22;6.50;;;4.32;;
27257;SDS011;62045;49.986;8.672;2022-11-20T19:38:24;7.15;;;3.90;;
27257;SDS011;62045;49.986;8.672;2022-11-20T19:43:24;7.03;;;4.10;;
27257;SDS011;62045;49.986;8.672;2022-11-20T19:48:25;6.45;;;3.92;;
27257;SDS011;62045;49.986;8.672;2022-11-20T19:58:31;6.68;;;3.60;;
27257;SDS011;62045;49.986;8.672;2022-11-20T20:03:32;6.18;;;3.97;;
27257;SDS011;62045;49.986;8.672;2022-11-20T20:08:34;5.93;;;3.70;;
27257;SDS011;62045;49.986;8.672;2022-11-20T20:13:34;6.68;;;3.63;;
27257;SDS011;62045;49.986;8.672;2022-11-20T20:18:35;4.85;;;3.38;;
27257;SDS011;62045;49.986;8.672;2022-11-20T20:23:37;6.20;;;3.10;;
27257;SDS011;62045;49.986;8.672;2022-11-20T20:28:39;5.33;;;3.57;;
27257;SDS011;62045;49.986;8.672;2022-11-20T20:33:40;4.63;;;3.45;;
27257;SDS011;62045;49.986;8.672;2022-11-20T20:38:43;6.07;;;4.35;;
27257;SDS011;62045;49.986;8.672;2022-11-20T20:43:44;6.35;;;3.13;;
27257;SDS011;62045;49.986;8.672;2022-11-20T20:48:45;4.70;;;2.90;;
27257;SDS011;62045;49.986;8.672;2022-11-20T20:53:47;5.10;;;2.92;;
27257;SDS011;62045;49.986;8.672;2022-11-20T20:58:48;5.80;;;3.30;;
27257;SDS011;62045;49.986;8.672;2022-11-20T21:03:49;4.82;;;3.20;;
27257;SDS011;62045;49.986;8.672;2022-11-20T21:08:51;4.93;;;3.08;;
27257;SDS011;62045;49.986;8.672;2022-11-20T21:13:52;5.72;;;3.70;;
27257;SDS011;62045;49.986;8.672;2022-11-20T21:18:52;5.05;;;2.90;;
27257;SDS011;62045;49.986;8.672;2022-11-20T21:23:54;4.97;;;3.22;;
27257;SDS011;62045;49.986;8.672;2022-11-20T21:28:55;4.88;;;2.90;;
27257;SDS011;62045;49.986;8.672;2022-11-20T21:33:56;5.90;;;3.00;;
27257;SDS011;62045;49.986;8.672;2022-11-20T21:38:59;4.40;;;2.70;;
27257;SDS011;62045;49.986;8.672;2022-11-20T21:44:00;4.63;;;2.70;;
27257;SDS011;62045;49.986;8.672;2022-11-20T21:49:02;5.07;;;2.80;;
27257;SDS011;62045;49.986;8.672;2022-11-20T21:54:04;3.83;;;2.28;;
27257;SDS011;62045;49.986;8.672;2022-11-20T21:59:05;4.43;;;2.88;;
27257;SDS011;62045;49.986;8.672;2022-11-20T22:04:05;4.03;;;2.40;;
27257;SDS011;62045;49.986;8.672;2022-11-20T22:09:08;5.90;;;3.10;;
27257;SDS011;62045;49.986;8.672;2022-11-20T22:14:09;4.57;;;2.75;;
27257;SDS011;62045;49.986;8.672;2022-11-20T22:19:10;4.18;;;2.38;;
27257;SDS011;62045;49.986;8.672;2022-11-20T22:29:17;4.47;;;2.33;;
27257;SDS011;62045;49.986;8.672;2022-11-20T22:34:19;4.50;;;2.53;;
27257;SDS011;62045;49.986;8.672;2022-11-20T22:39:21;3.55;;;2.05;;
27257;SDS011;62045;49.986;8.672;2022-11-20T22:44:22;3.70;;;2.30;;
27257;SDS011;62045;49.986;8.672;2022-11-20T22:49:23;4.05;;;2.45;;
27257;SDS011;62045;49.986;8.672;2022-11-20T22:54:25;3.28;;;1.98;;
27257;SDS011;62045;49.986;8.672;2022-11-20T22:59:25;3.83;;;2.30;;
27257;SDS011;62045;49.986;8.672;2022-11-20T23:04:26;3.25;;;1.83;;
27257;SDS011;62045;49.986;8.672;2022-11-20T23:09:28;3.45;;;2.10;;
27257;SDS011;62045;49.986;8.672;2022-11-20T23:14:29;3.75;;;2.20;;
27257;SDS011;62045;49.986;8.672;2022-11-20T23:19:29;3.05;;;1.83;;
27257;SDS011;62045;49.986;8.672;2022-11-20T23:24:31;2.83;;;1.60;;
27257;SDS011;62045;49.986;8.672;2022-11-20T23:29:32;4.43;;;2.00;;
27257;SDS011;62045;49.986;8.672;2022-11-20T23:34:33;2.92;;;1.63;;
27257;SDS011;62045;49.986;8.672;2022-11-20T23:39:35;2.92;;;1.58;;
27257;SDS011;62045;49.986;8.672;2022-11-20T23:44:35;2.65;;;1.67;;
27257;SDS011;62045;49.986;8.672;2022-11-20T23:49:36;3.38;;;2.00;;
27257;SDS011;62045;49.986;8.672;2022-11-20T23:54:38;3.25;;;1.70;;
27257;SDS011;62045;49.986;8.672;2022-11-20T23:59:39;3.22;;;1.67;;
